Time;durP1;ratioP1;P1;durP2;ratioP2;P2;SDS_P1;SDS_P2;PMS_P1;PMS_P2;Temp;Humidity;BMP_temperature;BMP_pressure;BME280_temperature;BME280_humidity;BME280_pressure;Samples;Min_cycle;Max_cycle;Signal;HPM_P1;HPM_P2
2022/10/14 00:01:11;;;;;;;12.40;3.90;;;17.30;85.00;;;;;;5037317;28;20033;-85
2022/10/14 00:03:38;;;;;;;10.95;3.08;;;17.30;85.10;;;;;;5053549;28;20060;-85
2022/10/14 00:06:13;;;;;;;8.27;3.30;;;17.20;85.10;;;;;;5057411;28;20387;-85
2022/10/14 00:08:39;;;;;;;9.77;3.72;;;17.20;85.00;;;;;;5051257;28;20393;-85
2022/10/14 00:11:06;;;;;;;12.20;3.97;;;17.20;85.10;;;;;;5037483;28;20072;-85
2022/10/14 00:13:33;;;;;;;9.05;3.50;;;17.20;85.00;;;;;;5037399;28;20029;-85
2022/10/14 00:15:58;;;;;;;8.68;3.50;;;17.20;85.00;;;;;;5037651;28;20053;-85
2022/10/14 00:18:24;;;;;;;10.48;3.83;;;17.20;85.00;;;;;;5037184;28;20476;-85
2022/10/14 00:21:00;;;;;;;9.02;3.35;;;17.20;85.00;;;;;;5037516;28;20135;-85
2022/10/14 00:23:26;;;;;;;10.52;3.88;;;17.20;84.90;;;;;;5064312;28;20024;-85
2022/10/14 00:25:53;;;;;;;10.23;3.55;;;17.20;84.90;;;;;;5077558;28;20035;-85
2022/10/14 00:28:19;;;;;;;9.57;3.70;;;17.20;84.90;;;;;;5076604;28;20055;-85
2022/10/14 00:31:01;;;;;;;8.82;2.97;;;17.20;84.90;;;;;;5077299;28;20483;-84
2022/10/14 00:33:27;;;;;;;16.58;4.05;;;17.20;84.80;;;;;;5042862;28;20036;-85
2022/10/14 00:35:57;;;;;;;9.27;3.78;;;17.20;84.80;;;;;;5037162;28;20014;-85
2022/10/14 00:38:23;;;;;;;;;;;17.20;84.80;;;;;;5037988;28;20483;-85
2022/10/14 00:40:49;;;;;;;15.77;4.05;;;17.20;84.70;;;;;;5036838;28;20022;-85
2022/10/14 00:43:15;;;;;;;10.55;3.83;;;17.10;84.60;;;;;;5037170;28;20029;-85
2022/10/14 00:45:41;;;;;;;10.05;3.88;;;17.10;84.60;;;;;;5036407;28;20033;-85
2022/10/14 00:48:08;;;;;;;10.57;3.63;;;17.10;84.70;;;;;;5036931;28;20030;-85
2022/10/14 00:50:35;;;;;;;10.90;4.20;;;17.10;84.60;;;;;;5036456;28;20057;-85
2022/10/14 00:53:02;;;;;;;16.17;4.72;;;17.10;84.50;;;;;;5036421;28;20056;-85
2022/10/14 00:55:28;;;;;;;12.30;3.75;;;17.00;84.50;;;;;;5037150;28;20018;-85
2022/10/14 00:57:54;;;;;;;10.15;4.25;;;17.10;84.50;;;;;;5036861;28;20030;-85
2022/10/14 01:00:21;;;;;;;12.25;4.28;;;17.00;84.60;;;;;;5035303;28;20036;-85
2022/10/14 01:02:47;;;;;;;8.18;3.90;;;17.10;84.50;;;;;;5035882;28;20029;-85
2022/10/14 01:05:15;;;;;;;12.68;4.45;;;17.00;84.60;;;;;;5036735;28;20033;-85
2022/10/14 01:07:59;;;;;;;13.77;4.45;;;17.00;84.50;;;;;;5037576;28;20479;-84
2022/10/14 01:10:56;;;;;;;16.00;4.28;;;17.00;84.50;;;;;;5056386;28;20024;-85
2022/10/14 01:13:33;;;;;;;10.07;3.45;;;17.00;84.30;;;;;;5056391;28;20034;-85
2022/10/14 01:16:17;;;;;;;12.45;4.80;;;17.00;84.40;;;;;;5056194;28;20395;-84
2022/10/14 01:18:52;;;;;;;13.50;4.63;;;16.90;84.30;;;;;;5038637;28;20025;-85
2022/10/14 01:21:32;;;;;;;14.57;4.75;;;16.90;84.50;;;;;;5035331;28;20101;-84
2022/10/14 01:24:01;;;;;;;13.88;4.30;;;16.90;84.30;;;;;;5073490;28;20395;-84
2022/10/14 01:26:34;;;;;;;11.55;4.45;;;16.90;84.20;;;;;;5036129;28;20108;-85
2022/10/14 01:29:24;;;;;;;12.63;4.18;;;16.90;84.30;;;;;;5036240;28;20080;-85
2022/10/14 01:31:55;;;;;;;;;;;16.90;84.40;;;;;;5035035;28;20124;-85
2022/10/14 01:34:24;;;;;;;;;;;16.90;84.30;;;;;;5039445;28;19921;-85
2022/10/14 01:37:01;;;;;;;12.98;4.05;;;16.90;84.30;;;;;;5055893;28;19909;-85
2022/10/14 01:39:31;;;;;;;14.07;5.03;;;16.90;84.30;;;;;;5054497;28;20476;-85
2022/10/14 01:42:17;;;;;;;9.90;3.97;;;16.90;84.20;;;;;;5054478;28;20031;-85
2022/10/14 01:44:49;;;;;;;10.35;3.85;;;16.90;84.30;;;;;;5048635;28;20029;-84
2022/10/14 01:47:18;;;;;;;10.77;4.18;;;16.90;84.20;;;;;;5036125;28;20021;-84
2022/10/14 01:49:52;;;;;;;10.65;4.30;;;16.80;84.20;;;;;;5034445;28;20033;-85
2022/10/14 01:52:22;;;;;;;11.15;5.03;;;16.80;84.10;;;;;;5034666;28;20114;-85
2022/10/14 01:54:52;;;;;;;13.85;4.95;;;16.80;84.40;;;;;;5035910;28;20034;-85
2022/10/14 01:57:23;;;;;;;10.30;4.20;;;16.80;84.50;;;;;;5035741;28;20094;-85
2022/10/14 01:59:50;;;;;;;7.95;3.65;;;16.80;84.50;;;;;;5051642;28;20021;-84
2022/10/14 02:02:22;;;;;;;7.40;4.20;;;16.80;84.40;;;;;;5043190;28;20025;-84
2022/10/14 02:04:48;;;;;;;9.02;3.95;;;16.80;84.40;;;;;;5035502;28;20044;-85
2022/10/14 02:07:27;;;;;;;9.27;4.40;;;16.80;84.40;;;;;;5035207;28;20067;-85
2022/10/14 02:10:37;;;;;;;13.02;4.32;;;16.70;84.30;;;;;;5035863;28;20038;-85
2022/10/14 02:13:08;;;;;;;9.85;4.25;;;16.70;84.40;;;;;;5035866;28;20400;-84
2022/10/14 02:16:15;;;;;;;7.60;4.30;;;16.80;84.40;;;;;;5035574;28;20033;-84
2022/10/14 02:18:52;;;;;;;10.45;3.67;;;16.70;84.40;;;;;;5034696;28;20024;-84
2022/10/14 02:21:36;;;;;;;7.00;3.22;;;16.70;84.40;;;;;;5035645;28;20022;-84
2022/10/14 02:24:29;;;;;;;12.60;4.70;;;16.70;84.40;;;;;;5058148;28;20099;-85
2022/10/14 02:26:57;;;;;;;11.63;4.60;;;16.70;84.40;;;;;;5038242;28;20504;-84
2022/10/14 02:29:25;;;;;;;10.80;4.35;;;16.70;84.40;;;;;;5035315;28;20017;-84
2022/10/14 02:31:52;;;;;;;10.45;4.05;;;16.70;84.30;;;;;;5035670;28;20091;-84
2022/10/14 02:34:21;;;;;;;13.32;4.68;;;16.70;84.30;;;;;;5035398;28;20493;-84
2022/10/14 02:36:48;;;;;;;11.00;4.50;;;16.70;84.30;;;;;;5033887;28;20029;-84
2022/10/14 02:39:20;;;;;;;8.30;4.32;;;16.70;84.30;;;;;;5034953;28;20088;-84
2022/10/14 02:41:46;;;;;;;7.97;3.88;;;16.70;84.30;;;;;;5034162;28;20471;-84
2022/10/14 02:44:12;;;;;;;12.18;4.53;;;16.70;84.30;;;;;;5034328;28;20034;-84
2022/10/14 02:46:38;;;;;;;10.25;4.20;;;16.70;84.30;;;;;;5033628;28;20056;-84
2022/10/14 02:49:04;;;;;;;12.82;4.18;;;16.70;84.20;;;;;;5035331;28;20017;-85
2022/10/14 02:51:30;;;;;;;10.23;4.70;;;16.70;84.30;;;;;;5033639;28;20056;-84
2022/10/14 02:53:56;;;;;;;11.43;3.55;;;16.60;84.30;;;;;;5035454;28;20037;-85
2022/10/14 02:56:22;;;;;;;10.27;3.83;;;16.60;84.30;;;;;;5033407;28;20053;-85
2022/10/14 02:58:48;;;;;;;13.77;4.63;;;16.70;84.30;;;;;;5035244;28;20095;-84
2022/10/14 03:01:14;;;;;;;13.30;4.18;;;16.60;84.40;;;;;;5035280;28;20492;-85
2022/10/14 03:03:39;;;;;;;10.73;3.97;;;16.60;84.30;;;;;;5035202;28;20472;-85
2022/10/14 03:06:05;;;;;;;11.80;4.45;;;16.60;84.40;;;;;;5035446;28;20025;-84
2022/10/14 03:08:31;;;;;;;13.48;3.38;;;16.60;84.30;;;;;;5034032;28;20021;-85
2022/10/14 03:10:56;;;;;;;11.75;4.15;;;16.60;84.40;;;;;;5034080;28;20435;-85
2022/10/14 03:13:22;;;;;;;8.52;3.55;;;16.60;84.30;;;;;;5037457;28;20037;-85
2022/10/14 03:15:49;;;;;;;9.27;4.05;;;16.50;84.40;;;;;;5038003;28;20085;-84
2022/10/14 03:18:15;;;;;;;9.65;3.58;;;16.60;84.40;;;;;;5038859;28;20454;-85
2022/10/14 03:20:43;;;;;;;9.18;4.28;;;16.50;84.50;;;;;;5037127;28;20093;-84
2022/10/14 03:23:09;;;;;;;11.88;4.10;;;16.50;84.50;;;;;;5062448;28;20028;-84
2022/10/14 03:25:36;;;;;;;8.40;3.95;;;16.50;84.50;;;;;;5078297;28;20066;-84
2022/10/14 03:28:02;;;;;;;9.88;4.00;;;16.50;84.50;;;;;;5061837;28;20033;-85
2022/10/14 03:30:27;;;;;;;9.60;4.63;;;16.50;84.40;;;;;;5038364;28;20028;-85
2022/10/14 03:32:53;;;;;;;12.73;4.55;;;16.50;84.60;;;;;;5036809;28;20041;-84
2022/10/14 03:35:19;;;;;;;8.98;3.85;;;16.50;84.60;;;;;;5038062;28;20036;-84
2022/10/14 03:37:45;;;;;;;9.55;3.95;;;16.40;84.80;;;;;;5036751;28;20668;-85
2022/10/14 03:40:11;;;;;;;10.63;4.63;;;16.40;84.70;;;;;;5038554;28;20025;-84
2022/10/14 03:42:36;;;;;;;9.95;4.13;;;16.40;84.60;;;;;;5047555;28;20037;-84
2022/10/14 03:45:03;;;;;;;10.98;4.68;;;16.50;84.50;;;;;;5058185;28;20135;-85
2022/10/14 03:47:29;;;;;;;10.57;4.03;;;16.40;84.50;;;;;;5057867;28;20100;-84
2022/10/14 03:49:54;;;;;;;7.47;4.10;;;16.50;84.50;;;;;;5048429;28;20111;-84
2022/10/14 03:52:20;;;;;;;8.95;4.30;;;16.40;84.00;;;;;;5038065;28;20054;-85
2022/10/14 03:54:46;;;;;;;8.48;3.80;;;16.30;84.10;;;;;;5035960;28;20032;-85
2022/10/14 03:57:11;;;;;;;9.85;3.65;;;16.30;84.00;;;;;;5048353;28;20037;-84
2022/10/14 03:59:37;;;;;;;10.25;4.55;;;16.30;84.20;;;;;;5057582;28;20100;-84
2022/10/14 04:02:02;;;;;;;7.13;3.47;;;16.30;84.20;;;;;;5040879;28;20029;-85
2022/10/14 04:04:28;;;;;;;6.43;4.00;;;16.30;84.10;;;;;;5037719;28;20057;-85
2022/10/14 04:06:54;;;;;;;9.93;4.78;;;16.30;84.10;;;;;;5037591;28;20029;-84
2022/10/14 04:09:19;;;;;;;9.68;3.95;;;16.30;84.10;;;;;;5055420;28;20492;-85
2022/10/14 04:11:45;;;;;;;7.28;3.53;;;16.30;84.10;;;;;;5055540;28;21370;-85
2022/10/14 04:14:11;;;;;;;9.63;4.35;;;16.30;84.00;;;;;;5051112;28;20035;-84
2022/10/14 04:16:36;;;;;;;9.38;4.10;;;16.30;84.20;;;;;;5047237;28;20077;-84
2022/10/14 04:19:02;;;;;;;10.05;4.15;;;16.30;84.00;;;;;;5038929;28;20132;-85
2022/10/14 04:21:28;;;;;;;9.18;4.43;;;16.30;83.70;;;;;;5037348;28;20045;-84
2022/10/14 04:23:56;;;;;;;8.25;4.13;;;16.30;84.10;;;;;;5036909;28;20061;-84
2022/10/14 04:26:22;;;;;;;8.80;4.00;;;16.30;84.10;;;;;;5037469;28;20034;-84
2022/10/14 04:28:47;;;;;;;9.48;4.80;;;16.30;84.00;;;;;;5036730;28;20025;-85
2022/10/14 04:31:13;;;;;;;10.52;4.43;;;16.30;84.00;;;;;;5035236;28;20068;-83
2022/10/14 04:33:38;;;;;;;8.63;4.18;;;16.30;84.10;;;;;;5035619;28;20365;-84
2022/10/14 04:36:05;;;;;;;10.45;4.60;;;16.30;84.00;;;;;;5037216;28;20044;-83
2022/10/14 04:38:32;;;;;;;7.20;3.97;;;16.30;84.10;;;;;;5035877;28;20021;-83
2022/10/14 04:40:58;;;;;;;5.85;3.22;;;16.30;84.00;;;;;;5035656;28;20025;-83
2022/10/14 04:43:24;;;;;;;6.63;3.55;;;16.30;84.00;;;;;;5036818;28;20495;-81
2022/10/14 04:45:50;;;;;;;6.63;3.55;;;16.30;83.80;;;;;;5036926;28;20400;-80
2022/10/14 04:48:17;;;;;;;7.00;3.90;;;16.30;83.80;;;;;;5034676;28;20074;-81
2022/10/14 04:50:42;;;;;;;7.35;3.28;;;16.30;83.80;;;;;;5035367;28;20115;-80
2022/10/14 04:53:08;;;;;;;7.25;3.45;;;16.30;83.60;;;;;;5036629;28;20029;-80
2022/10/14 04:55:35;;;;;;;6.50;3.03;;;16.30;83.60;;;;;;5036409;28;20025;-78
2022/10/14 04:58:00;;;;;;;5.63;3.03;;;16.30;83.70;;;;;;5036631;28;20422;-77
2022/10/14 05:00:29;;;;;;;6.45;3.47;;;16.30;83.40;;;;;;5036344;28;20101;-78
2022/10/14 05:02:55;;;;;;;5.95;2.90;;;16.30;83.50;;;;;;5042480;28;20032;-78
2022/10/14 05:05:20;;;;;;;5.22;2.75;;;16.30;83.30;;;;;;5047552;28;20410;-80
2022/10/14 05:07:46;;;;;;;6.47;3.15;;;16.30;83.50;;;;;;5040462;28;20025;-81
2022/10/14 05:10:12;;;;;;;7.38;3.10;;;16.30;83.30;;;;;;5047817;28;20036;-78
2022/10/14 05:12:38;;;;;;;5.75;3.08;;;16.30;83.40;;;;;;5044473;28;20040;-79
2022/10/14 05:15:05;;;;;;;6.47;2.75;;;16.30;83.30;;;;;;5043314;28;20105;-83
2022/10/14 05:17:31;;;;;;;4.53;2.70;;;16.30;83.30;;;;;;5034809;28;20028;-78
2022/10/14 05:19:57;;;;;;;4.28;2.83;;;16.30;83.40;;;;;;5039757;28;20407;-76
2022/10/14 05:22:24;;;;;;;5.25;2.50;;;16.30;83.30;;;;;;5040988;28;20033;-77
2022/10/14 05:24:49;;;;;;;5.72;3.00;;;16.30;83.30;;;;;;5037671;28;20040;-78
2022/10/14 05:27:15;;;;;;;6.53;3.08;;;16.20;83.30;;;;;;5035040;28;20030;-78
2022/10/14 05:29:41;;;;;;;6.38;3.45;;;16.20;83.20;;;;;;5036041;28;20030;-80
2022/10/14 05:32:07;;;;;;;6.68;3.13;;;16.20;83.40;;;;;;5035083;28;20026;-81
2022/10/14 05:34:33;;;;;;;5.78;3.15;;;16.10;83.30;;;;;;5036663;28;20512;-79
2022/10/14 05:36:59;;;;;;;6.15;3.00;;;16.10;83.50;;;;;;5035422;28;20049;-80
2022/10/14 05:39:25;;;;;;;6.00;3.35;;;16.00;83.30;;;;;;5039631;28;20049;-80
2022/10/14 05:41:50;;;;;;;6.63;3.17;;;16.00;83.50;;;;;;5045518;28;20093;-80
2022/10/14 05:44:18;;;;;;;5.88;3.47;;;16.00;83.90;;;;;;5031467;28;20064;-81
2022/10/14 05:46:44;;;;;;;6.53;3.85;;;16.00;84.10;;;;;;5045672;28;20551;-80
2022/10/14 05:49:10;;;;;;;8.35;3.47;;;16.00;84.10;;;;;;5053150;28;20118;-81
2022/10/14 05:51:36;;;;;;;5.45;3.38;;;16.00;84.10;;;;;;5045953;28;20048;-79
2022/10/14 05:54:03;;;;;;;11.75;4.00;;;16.00;83.90;;;;;;5055595;28;20049;-81
2022/10/14 05:56:29;;;;;;;7.85;4.20;;;16.00;84.10;;;;;;5052562;28;20052;-79
2022/10/14 05:58:55;;;;;;;7.03;3.90;;;15.90;84.20;;;;;;5053131;28;20056;-79
2022/10/14 06:01:23;;;;;;;7.85;4.15;;;16.00;84.30;;;;;;5054110;28;20036;-80
2022/10/14 06:03:50;;;;;;;8.73;3.50;;;16.00;84.30;;;;;;5055386;28;20115;-80
2022/10/14 06:06:15;;;;;;;6.35;3.58;;;16.00;84.40;;;;;;5047424;28;20035;-80
2022/10/14 06:08:42;;;;;;;7.00;3.80;;;16.00;84.20;;;;;;5035835;28;20065;-81
2022/10/14 06:11:08;;;;;;;6.80;3.40;;;16.00;84.30;;;;;;5044089;28;20127;-80
2022/10/14 06:13:34;;;;;;;6.53;3.95;;;16.00;84.30;;;;;;5045243;28;20044;-83
2022/10/14 06:16:07;;;;;;;5.88;3.80;;;16.00;84.20;;;;;;5047262;28;20035;-76
2022/10/14 06:18:34;;;;;;;7.38;3.83;;;16.00;84.20;;;;;;5053498;28;20035;-77
2022/10/14 06:21:00;;;;;;;9.45;4.05;;;16.00;84.20;;;;;;5053743;28;20484;-77
2022/10/14 06:23:26;;;;;;;11.13;4.57;;;16.00;84.30;;;;;;5055456;28;20056;-77
2022/10/14 06:25:52;;;;;;;8.98;4.30;;;15.90;84.40;;;;;;5045583;28;20036;-77
2022/10/14 06:28:18;;;;;;;7.68;4.47;;;15.90;84.40;;;;;;5053663;28;20029;-77
2022/10/14 06:30:51;;;;;;;9.18;4.10;;;15.90;84.60;;;;;;5047620;28;20078;-77
2022/10/14 06:33:17;;;;;;;6.68;3.40;;;15.80;84.70;;;;;;5050737;28;20039;-77
2022/10/14 06:35:42;;;;;;;8.40;3.83;;;15.90;84.70;;;;;;5053739;28;20503;-77
2022/10/14 06:38:08;;;;;;;7.18;3.53;;;15.90;84.70;;;;;;5053936;28;20029;-77
2022/10/14 06:40:38;;;;;;;6.78;4.38;;;15.80;84.70;;;;;;5047328;28;20045;-77
2022/10/14 06:43:05;;;;;;;7.20;3.60;;;15.90;84.80;;;;;;5049400;28;20116;-77
2022/10/14 06:45:30;;;;;;;6.68;3.75;;;15.80;84.90;;;;;;5051020;28;20120;-77
2022/10/14 06:47:56;;;;;;;7.32;4.10;;;15.80;85.10;;;;;;5052942;28;20060;-79
2022/10/14 06:50:22;;;;;;;7.97;4.03;;;15.80;85.20;;;;;;5052674;28;20071;-79
2022/10/14 06:52:48;;;;;;;6.20;3.55;;;15.80;85.20;;;;;;5050663;28;20036;-78
2022/10/14 06:55:15;;;;;;;5.88;3.13;;;15.70;85.40;;;;;;5038848;28;20033;-78
2022/10/14 06:57:43;;;;;;;5.82;3.13;;;15.80;85.40;;;;;;5039048;28;20506;-78
2022/10/14 07:00:09;;;;;;;5.65;3.22;;;15.70;85.40;;;;;;5045622;28;20029;-79
2022/10/14 07:02:37;;;;;;;5.75;3.25;;;15.70;85.60;;;;;;5054312;28;20020;-76
2022/10/14 07:05:03;;;;;;;4.43;2.85;;;15.70;85.60;;;;;;5052074;28;20030;-76
2022/10/14 07:07:31;;;;;;;4.40;2.80;;;15.70;85.30;;;;;;5049237;28;20029;-76
2022/10/14 07:09:57;;;;;;;6.28;3.05;;;15.70;85.40;;;;;;5057046;28;20048;-76
2022/10/14 07:12:23;;;;;;;5.93;3.60;;;15.70;85.60;;;;;;5058453;28;20032;-75
2022/10/14 07:14:49;;;;;;;5.25;2.75;;;15.70;85.80;;;;;;5057141;28;20032;-75
2022/10/14 07:17:14;;;;;;;7.13;3.95;;;15.60;86.20;;;;;;5058296;28;20029;-75
2022/10/14 07:19:40;;;;;;;5.88;3.42;;;15.70;86.10;;;;;;5055091;28;20020;-77
2022/10/14 07:22:06;;;;;;;7.85;2.97;;;15.70;85.90;;;;;;5058814;28;20028;-77
2022/10/14 07:24:31;;;;;;;7.25;3.75;;;15.70;85.90;;;;;;5057068;28;20036;-77
2022/10/14 07:26:57;;;;;;;4.88;2.40;;;15.80;85.80;;;;;;5056717;28;20025;-77
2022/10/14 07:29:23;;;;;;;6.10;3.00;;;15.70;86.00;;;;;;5055294;28;20021;-77
2022/10/14 07:31:49;;;;;;;4.10;2.15;;;15.70;86.20;;;;;;5049043;28;20021;-77
2022/10/14 07:34:14;;;;;;;5.03;2.65;;;15.70;86.50;;;;;;5051420;28;20493;-77
2022/10/14 07:36:40;;;;;;;4.47;2.40;;;15.70;86.50;;;;;;5056192;28;20032;-77
2022/10/14 07:39:06;;;;;;;4.28;2.33;;;15.70;86.50;;;;;;5056307;28;20492;-77
2022/10/14 07:41:32;;;;;;;4.32;2.28;;;15.70;86.40;;;;;;5055605;28;20466;-78
2022/10/14 07:44:05;;;;;;;3.97;2.50;;;15.70;86.40;;;;;;5057782;28;20029;-76
2022/10/14 07:46:33;;;;;;;3.67;1.95;;;15.80;86.50;;;;;;5056174;28;20491;-76
2022/10/14 07:49:03;;;;;;;3.42;1.95;;;15.80;86.40;;;;;;5056503;28;20047;-77
2022/10/14 07:51:28;;;;;;;4.75;2.30;;;15.70;86.70;;;;;;5056277;28;20045;-77
2022/10/14 07:53:56;;;;;;;4.85;2.08;;;15.80;86.60;;;;;;5056161;28;20064;-77
2022/10/14 07:56:22;;;;;;;3.67;1.80;;;15.80;86.50;;;;;;5056021;28;20029;-77
2022/10/14 07:58:48;;;;;;;3.78;2.13;;;15.80;86.40;;;;;;5050359;28;20090;-77
2022/10/14 08:01:14;;;;;;;5.68;2.88;;;15.80;86.40;;;;;;5056310;28;20025;-77
2022/10/14 08:03:41;;;;;;;3.92;2.47;;;15.80;86.50;;;;;;5056775;28;20029;-77
2022/10/14 08:06:07;;;;;;;4.80;2.92;;;15.80;86.70;;;;;;5038363;28;20029;-77
2022/10/14 08:08:33;;;;;;;3.97;2.30;;;15.80;86.70;;;;;;5036394;28;20029;-78
2022/10/14 08:11:04;;;;;;;3.63;2.33;;;15.90;86.60;;;;;;5044670;28;20092;-77
2022/10/14 08:13:30;;;;;;;3.40;2.10;;;15.90;86.80;;;;;;5051681;28;20033;-77
2022/10/14 08:15:56;;;;;;;3.92;1.90;;;16.00;86.60;;;;;;5043430;28;20032;-77
2022/10/14 08:18:22;;;;;;;5.18;2.20;;;16.00;86.60;;;;;;5057476;28;20032;-77
2022/10/14 08:20:48;;;;;;;4.10;2.38;;;16.00;86.70;;;;;;5062000;28;20035;-77
2022/10/14 08:23:13;;;;;;;3.35;1.92;;;16.00;87.00;;;;;;5055853;28;20029;-77
2022/10/14 08:25:39;;;;;;;4.40;2.50;;;16.00;86.90;;;;;;5056433;28;20118;-77
2022/10/14 08:28:05;;;;;;;3.63;2.40;;;16.10;86.90;;;;;;5045884;28;20445;-78
2022/10/14 08:30:30;;;;;;;3.40;2.35;;;16.10;86.90;;;;;;5055345;28;20029;-77
2022/10/14 08:32:56;;;;;;;4.57;2.55;;;16.20;87.10;;;;;;5036626;28;20026;-77
2022/10/14 08:35:22;;;;;;;4.22;2.30;;;16.20;86.80;;;;;;5050427;28;20033;-77
2022/10/14 08:37:55;;;;;;;3.88;2.33;;;16.30;87.00;;;;;;5039050;28;20335;-77
2022/10/14 08:40:22;;;;;;;3.95;2.17;;;16.30;86.90;;;;;;5055520;28;20411;-77
2022/10/14 08:43:14;;;;;;;4.28;2.60;;;16.30;86.90;;;;;;5056812;28;20033;-78
2022/10/14 08:45:50;;;;;;;9.75;4.75;;;16.40;86.80;;;;;;5041392;28;20041;-77
2022/10/14 08:48:21;;;;;;;6.22;3.95;;;16.40;87.00;;;;;;5056894;28;20353;-77
2022/10/14 08:50:49;;;;;;;9.25;4.45;;;16.40;87.00;;;;;;5050500;28;20091;-77
2022/10/14 08:53:19;;;;;;;9.23;3.25;;;16.50;87.00;;;;;;5054697;28;20147;-77
2022/10/14 08:55:53;;;;;;;;;;;16.50;87.00;;;;;;5048808;28;20025;-77
2022/10/14 08:58:32;;;;;;;4.63;2.72;;;16.60;87.10;;;;;;5054257;28;20445;-77
2022/10/14 09:01:18;;;;;;;5.40;3.38;;;16.60;87.30;;;;;;5053601;28;20112;-78
2022/10/14 09:03:44;;;;;;;6.65;3.58;;;16.70;87.30;;;;;;5055315;28;20844;-77
2022/10/14 09:06:24;;;;;;;4.85;3.15;;;16.70;87.40;;;;;;5050391;28;20116;-78
2022/10/14 09:08:54;;;;;;;6.13;3.58;;;16.80;87.50;;;;;;5046024;28;20037;-78
2022/10/14 09:11:21;;;;;;;5.38;3.20;;;16.80;87.60;;;;;;5050885;28;20033;-78
2022/10/14 09:13:54;;;;;;;5.15;2.85;;;16.90;87.80;;;;;;5053886;28;20131;-77
2022/10/14 09:16:20;;;;;;;4.70;2.95;;;17.00;87.80;;;;;;5054013;28;20492;-77
2022/10/14 09:19:07;;;;;;;4.25;2.60;;;17.20;87.80;;;;;;5055560;28;20040;-78
2022/10/14 09:21:41;;;;;;;5.32;2.92;;;17.20;87.90;;;;;;5049512;28;20060;-77
2022/10/14 09:24:20;;;;;;;4.75;2.13;;;17.20;87.90;;;;;;5055934;28;20392;-78
2022/10/14 09:26:53;;;;;;;3.08;2.17;;;17.20;88.00;;;;;;5061259;28;20020;-78
2022/10/14 09:29:42;;;;;;;2.53;1.70;;;17.30;88.20;;;;;;5038524;28;20407;-77
2022/10/14 09:32:14;;;;;;;3.22;1.60;;;17.30;88.30;;;;;;5054963;28;20122;-77
2022/10/14 09:34:49;;;;;;;2.67;1.42;;;17.30;88.60;;;;;;5043163;28;20026;-78
2022/10/14 09:37:33;;;;;;;2.75;1.73;;;17.40;88.90;;;;;;5063397;28;20036;-78
2022/10/14 09:40:05;;;;;;;3.28;1.90;;;17.40;88.70;;;;;;5055217;28;20458;-78
2022/10/14 09:43:05;;;;;;;2.42;1.52;;;17.60;88.90;;;;;;5074567;28;20025;-78
2022/10/14 09:45:46;;;;;;;2.05;1.10;;;17.60;88.90;;;;;;5049036;28;20093;-78
2022/10/14 09:48:23;;;;;;;1.90;1.17;;;17.70;89.10;;;;;;5043378;28;20087;-78
2022/10/14 09:50:51;;;;;;;1.80;1.23;;;17.70;88.90;;;;;;5050835;28;20098;-78
2022/10/14 09:53:28;;;;;;;3.70;1.50;;;17.80;88.90;;;;;;5048083;28;20036;-78
2022/10/14 09:56:05;;;;;;;1.92;0.73;;;17.90;88.90;;;;;;5055249;28;20029;-78
2022/10/14 09:58:45;;;;;;;2.25;1.25;;;18.00;88.90;;;;;;5053003;28;20025;-78
2022/10/14 10:01:47;;;;;;;1.80;1.03;;;18.10;88.90;;;;;;5050091;28;20132;-78
2022/10/14 10:04:29;;;;;;;4.63;1.35;;;18.20;89.00;;;;;;5051066;28;20838;-78
2022/10/14 10:07:00;;;;;;;6.00;0.80;;;18.40;88.90;;;;;;5054148;28;20032;-78
2022/10/14 10:09:26;;;;;;;2.15;0.85;;;18.60;88.80;;;;;;5054295;28;20021;-77
2022/10/14 10:11:53;;;;;;;3.83;1.02;;;18.80;88.50;;;;;;5051772;28;20033;-78
2022/10/14 10:14:26;;;;;;;2.53;1.13;;;18.80;88.20;;;;;;5052693;28;20021;-77
2022/10/14 10:17:07;;;;;;;5.05;0.95;;;18.90;88.20;;;;;;5054132;28;20024;-77
2022/10/14 10:19:40;;;;;;;1.83;0.75;;;19.00;87.90;;;;;;5051141;28;20035;-78
2022/10/14 10:22:22;;;;;;;7.40;1.48;;;19.10;87.80;;;;;;5053631;28;20058;-78
2022/10/14 10:25:16;;;;;;;5.78;0.93;;;19.10;87.50;;;;;;5051502;28;20036;-78
2022/10/14 10:27:48;;;;;;;2.53;1.05;;;19.00;87.90;;;;;;5047123;28;20079;-77
2022/10/14 10:30:14;;;;;;;3.47;0.88;;;18.90;88.00;;;;;;5038163;28;20029;-78
2022/10/14 10:33:13;;;;;;;3.40;0.70;;;18.90;88.10;;;;;;5039849;28;20112;-78
2022/10/14 10:35:58;;;;;;;4.15;1.02;;;19.00;88.20;;;;;;5049872;28;20021;-79
2022/10/14 10:38:51;;;;;;;1.52;0.85;;;19.10;88.00;;;;;;5046622;28;20040;-77
2022/10/14 10:41:57;;;;;;;3.45;1.15;;;19.00;88.00;;;;;;5051576;28;20096;-80
2022/10/14 10:44:32;;;;;;;2.67;0.93;;;19.00;88.20;;;;;;5046622;28;20017;-76
2022/10/14 10:47:07;;;;;;;2.08;0.90;;;19.00;88.00;;;;;;5041740;28;20021;-77
2022/10/14 10:49:54;;;;;;;1.67;0.63;;;19.00;88.30;;;;;;5050644;28;20056;-77
2022/10/14 10:52:59;;;;;;;1.33;0.85;;;19.00;88.40;;;;;;5053549;28;20048;-78
2022/10/14 10:55:28;;;;;;;3.97;0.82;;;19.10;88.40;;;;;;5039050;28;20071;-77
2022/10/14 10:58:33;;;;;;;3.72;0.70;;;19.10;88.20;;;;;;5037702;28;20037;-79
2022/10/14 11:01:07;;;;;;;2.00;0.90;;;19.10;88.50;;;;;;5038815;28;20017;-78
2022/10/14 11:03:52;;;;;;;6.30;0.98;;;19.30;88.20;;;;;;5051195;28;20037;-77
2022/10/14 11:12:34;;;;;;;1.88;0.90;;;19.70;87.40;;;;;;5040448;28;20031;-77
2022/10/14 11:15:09;;;;;;;1.70;0.90;;;19.80;87.10;;;;;;5046569;28;20029;-77
2022/10/14 11:17:49;;;;;;;3.70;1.02;;;19.80;87.30;;;;;;5046487;28;20072;-77
2022/10/14 11:20:50;;;;;;;2.55;0.60;;;19.80;87.00;;;;;;5044604;28;20028;-77
2022/10/14 11:23:28;;;;;;;1.90;0.50;;;19.80;86.90;;;;;;5048161;28;20043;-77
2022/10/14 11:26:02;;;;;;;5.80;0.82;;;19.70;86.60;;;;;;5046975;28;20649;-77
2022/10/14 11:29:09;;;;;;;3.72;0.93;;;19.70;86.70;;;;;;5045105;28;20022;-77
2022/10/14 11:31:50;;;;;;;4.00;0.95;;;19.70;86.90;;;;;;5044209;28;20072;-77
2022/10/14 11:34:46;;;;;;;8.02;1.20;;;19.60;86.70;;;;;;5048181;28;20036;-77
2022/10/14 11:37:24;;;;;;;1.88;0.60;;;19.60;86.90;;;;;;5046224;28;20032;-77
2022/10/14 11:40:04;;;;;;;3.17;0.80;;;19.60;87.00;;;;;;5047531;28;20101;-77
2022/10/14 11:43:01;;;;;;;3.85;0.60;;;19.60;86.60;;;;;;5046884;28;20021;-77
2022/10/14 11:45:37;;;;;;;0.93;0.50;;;19.50;86.30;;;;;;5046651;28;20146;-77
2022/10/14 11:48:20;;;;;;;1.55;0.50;;;19.50;86.70;;;;;;5046073;28;20557;-77
2022/10/14 11:50:50;;;;;;;2.95;0.70;;;19.60;86.80;;;;;;5046569;28;20052;-77
2022/10/14 11:53:22;;;;;;;1.55;0.65;;;19.70;86.70;;;;;;5045607;28;20029;-77
2022/10/14 11:56:03;;;;;;;1.40;0.50;;;19.70;86.40;;;;;;5047129;28;20056;-77
2022/10/14 11:58:33;;;;;;;3.40;0.88;;;19.70;86.60;;;;;;5046582;28;20049;-78
2022/10/14 12:01:02;;;;;;;3.28;1.00;;;19.70;86.50;;;;;;5046654;28;20126;-77
2022/10/14 12:04:09;;;;;;;8.27;1.05;;;19.70;86.60;;;;;;5046203;28;20495;-77
2022/10/14 12:06:42;;;;;;;2.75;1.05;;;19.80;86.40;;;;;;5045480;28;20048;-77
2022/10/14 12:09:14;;;;;;;1.02;0.55;;;19.80;86.20;;;;;;5046335;28;20017;-77
2022/10/14 12:11:48;;;;;;;3.13;0.93;;;19.80;86.00;;;;;;5046617;28;20033;-77
2022/10/14 12:14:23;;;;;;;4.88;1.15;;;19.80;86.10;;;;;;5046788;28;20029;-77
2022/10/14 12:16:49;;;;;;;1.77;0.80;;;19.80;85.90;;;;;;5045154;28;20029;-76
2022/10/14 12:19:22;;;;;;;2.78;1.15;;;19.70;86.00;;;;;;5015155;23;20769;-77
2022/10/14 12:22:03;;;;;;;3.00;0.75;;;19.70;86.00;;;;;;4986061;28;20076;-77
2022/10/14 12:24:37;;;;;;;1.33;0.70;;;19.70;86.00;;;;;;4995895;28;20035;-76
2022/10/14 12:27:07;;;;;;;1.10;0.45;;;19.70;85.30;;;;;;4997956;28;20025;-76
2022/10/14 12:29:35;;;;;;;1.85;0.73;;;19.60;85.50;;;;;;4996251;28;20030;-76
2022/10/14 12:32:06;;;;;;;3.13;0.85;;;19.60;85.40;;;;;;4984673;28;20026;-79
2022/10/14 12:34:42;;;;;;;2.13;0.60;;;19.40;85.40;;;;;;4978225;28;20057;-78
2022/10/14 12:37:23;;;;;;;1.33;0.60;;;19.30;85.80;;;;;;4983306;28;20049;-78
2022/10/14 12:39:53;;;;;;;1.20;0.70;;;19.30;85.30;;;;;;4997784;28;20502;-78
2022/10/14 12:42:20;;;;;;;1.75;0.65;;;19.20;85.50;;;;;;4985665;28;20664;-78
2022/10/14 12:44:55;;;;;;;2.38;0.77;;;19.20;86.20;;;;;;4978077;28;20105;-78
2022/10/14 12:47:27;;;;;;;2.55;0.70;;;19.10;86.10;;;;;;4977681;28;20023;-78
2022/10/14 12:49:55;;;;;;;5.45;1.15;;;19.20;86.10;;;;;;4992896;28;20035;-79
2022/10/14 12:52:42;;;;;;;1.00;0.50;;;19.10;86.10;;;;;;4984713;28;20039;-78
2022/10/14 12:55:18;;;;;;;2.72;0.90;;;19.00;85.90;;;;;;4978091;28;20023;-78
2022/10/14 12:57:56;;;;;;;2.28;0.85;;;19.00;86.20;;;;;;4976868;28;20061;-78
2022/10/14 13:00:21;;;;;;;2.63;0.90;;;19.00;86.20;;;;;;4978143;28;20023;-78
2022/10/14 13:02:49;;;;;;;4.07;0.60;;;19.00;86.20;;;;;;4992879;28;20633;-78
2022/10/14 13:05:39;;;;;;;1.00;0.47;;;19.00;86.20;;;;;;4976738;28;20047;-78
2022/10/14 13:08:20;;;;;;;1.70;0.80;;;19.00;86.40;;;;;;4996372;28;20034;-78
2022/10/14 13:10:48;;;;;;;1.70;0.88;;;19.00;86.50;;;;;;4997242;28;20027;-78
2022/10/14 13:13:50;;;;;;;3.33;0.90;;;19.10;86.50;;;;;;4997137;28;20038;-78